createdAt,value
2023-03-26T00:01:15.612Z,99856.88
2023-03-26T00:03:44.726Z,99862.88
2023-03-26T00:06:13.983Z,99870.59
2023-03-26T00:08:42.050Z,99869.63
2023-03-26T00:11:10.490Z,99863.41
2023-03-26T00:13:37.335Z,99871.09
2023-03-26T00:16:04.412Z,99865.63
2023-03-26T00:18:31.660Z,99868.38
2023-03-26T00:20:59.073Z,99863.28
2023-03-26T00:23:26.976Z,99868.69
2023-03-26T00:25:53.715Z,99864.38
2023-03-26T00:28:23.063Z,99861.88
2023-03-26T00:30:50.591Z,99869.91
2023-03-26T00:33:17.453Z,99865.38
2023-03-26T00:35:46.970Z,99866.97
2023-03-26T00:38:14.601Z,99869.75
2023-03-26T00:40:43.944Z,99865.59
2023-03-26T00:43:18.906Z,99860.34
2023-03-26T00:45:54.726Z,99865.72
2023-03-26T00:48:31.561Z,99864.22
2023-03-26T00:51:05.779Z,99865.56
2023-03-26T00:53:33.307Z,99862.94
2023-03-26T00:56:00.245Z,99861.13
2023-03-26T00:58:27.571Z,99859.41
2023-03-26T01:00:57.755Z,99855.63
2023-03-26T01:03:29.393Z,99854.56
2023-03-26T01:06:04.846Z,99853.31
2023-03-26T01:08:38.190Z,99847.72
2023-03-26T01:11:33.339Z,99844.75
2023-03-26T01:14:07.028Z,99845.31
2023-03-26T01:16:46.629Z,99836.44
2023-03-26T01:19:38.179Z,99839.78
2023-03-26T01:22:07.054Z,99841.34
2023-03-26T01:24:33.424Z,99834.47
2023-03-26T01:27:34.797Z,99826.66
2023-03-26T01:30:23.531Z,99836.09
2023-03-26T01:33:16.083Z,99825.53
2023-03-26T01:35:55.001Z,99822.03
2023-03-26T01:38:37.624Z,99818.91
2023-03-26T01:41:11.524Z,99811.03
2023-03-26T01:43:53.104Z,99808.38
2023-03-26T01:46:22.201Z,99812.78
2023-03-26T01:48:49.313Z,99813.66
2023-03-26T01:51:28.452Z,99802.53
2023-03-26T01:53:56.347Z,99805.34
2023-03-26T01:56:45.903Z,99796.84
2023-03-26T01:59:33.922Z,99792.00
2023-03-26T02:02:07.824Z,99781.94
2023-03-26T02:04:43.901Z,99783.81
2023-03-26T02:07:20.806Z,99786.72
2023-03-26T02:10:10.574Z,99782.41
2023-03-26T02:12:37.636Z,99785.09
2023-03-26T02:15:04.504Z,99774.59
2023-03-26T02:17:32.483Z,99769.41
2023-03-26T02:19:58.899Z,99760.63
2023-03-26T02:22:29.685Z,99758.88
2023-03-26T02:24:56.112Z,99753.56
2023-03-26T02:27:22.766Z,99756.31
2023-03-26T02:29:50.225Z,99751.91
2023-03-26T02:32:19.156Z,99749.34
2023-03-26T02:34:45.704Z,99750.31
2023-03-26T02:37:12.005Z,99747.03
2023-03-26T02:39:38.381Z,99749.81
2023-03-26T02:42:04.833Z,99749.00
2023-03-26T02:44:31.194Z,99743.75
2023-03-26T02:46:57.722Z,99739.34
2023-03-26T02:49:24.065Z,99736.84
2023-03-26T02:51:50.753Z,99740.34
2023-03-26T02:54:18.141Z,99737.06
2023-03-26T02:56:44.530Z,99730.88
2023-03-26T02:59:11.213Z,99730.09
2023-03-26T03:01:42.665Z,99722.28
2023-03-26T03:04:11.150Z,99712.09
2023-03-26T03:06:38.619Z,99710.28
2023-03-26T03:09:06.800Z,99708.53
2023-03-26T03:11:33.130Z,99702.59
2023-03-26T03:13:59.501Z,99706.25
2023-03-26T03:16:26.706Z,99704.47
2023-03-26T03:18:54.551Z,99691.28
2023-03-26T03:21:21.822Z,99691.25
2023-03-26T03:23:48.365Z,99693.81
2023-03-26T03:26:17.853Z,99690.22
2023-03-26T03:28:45.149Z,99681.47
2023-03-26T03:31:11.643Z,99688.47
2023-03-26T03:33:38.079Z,99678.00
2023-03-26T03:36:10.251Z,99673.59
2023-03-26T03:38:46.515Z,99671.75
2023-03-26T03:41:12.845Z,99669.88
2023-03-26T03:43:39.184Z,99666.31
2023-03-26T03:46:05.743Z,99668.06
2023-03-26T03:48:33.076Z,99661.88
2023-03-26T03:50:59.360Z,99661.97
2023-03-26T03:53:26.282Z,99661.94
2023-03-26T03:55:54.728Z,99662.22
2023-03-26T03:58:27.956Z,99665.84
2023-03-26T04:01:00.742Z,99650.91
2023-03-26T04:03:33.938Z,99646.47
2023-03-26T04:06:00.987Z,99635.97
2023-03-26T04:08:27.349Z,99640.34
2023-03-26T04:10:53.658Z,99632.47
2023-03-26T04:13:20.133Z,99632.41
2023-03-26T04:15:46.637Z,99622.72
2023-03-26T04:18:12.953Z,99617.47
2023-03-26T04:20:46.558Z,99613.06
2023-03-26T04:23:14.456Z,99607.84
2023-03-26T04:25:48.312Z,99607.91
2023-03-26T04:28:42.969Z,99593.88
2023-03-26T04:31:13.793Z,99593.75
2023-03-26T04:33:40.338Z,99608.53
2023-03-26T04:36:07.068Z,99598.84
2023-03-26T04:38:41.948Z,99581.34
2023-03-26T04:41:13.548Z,99576.22
2023-03-26T04:43:47.158Z,99565.53
2023-03-26T04:46:14.186Z,99554.91
2023-03-26T04:48:40.946Z,99554.84
2023-03-26T04:51:07.411Z,99546.78
2023-03-26T04:53:34.348Z,99544.06
2023-03-26T04:56:09.025Z,99543.16
2023-03-26T04:58:35.448Z,99535.13
2023-03-26T05:01:09.800Z,99526.25
2023-03-26T05:03:40.600Z,99530.66
2023-03-26T05:06:07.374Z,99535.72
2023-03-26T05:08:33.658Z,99519.00
2023-03-26T05:11:00.194Z,99514.56
2023-03-26T05:13:26.778Z,99511.94
2023-03-26T05:15:53.087Z,99497.16
2023-03-26T05:18:19.476Z,99495.38
2023-03-26T05:20:46.360Z,99486.69
2023-03-26T05:23:12.682Z,99476.25
2023-03-26T05:25:39.037Z,99467.50
2023-03-26T05:28:05.683Z,99475.38
2023-03-26T05:30:32.111Z,99462.22
2023-03-26T05:32:58.548Z,99460.44
2023-03-26T05:35:25.465Z,99449.13
2023-03-26T05:37:51.827Z,99434.22
2023-03-26T05:40:18.298Z,99468.25
2023-03-26T05:42:45.425Z,99473.47
2023-03-26T05:45:13.770Z,99470.00
2023-03-26T05:47:40.231Z,99475.28
2023-03-26T05:50:07.481Z,99470.13
2023-03-26T05:52:33.867Z,99449.16
2023-03-26T05:55:00.225Z,99446.56
2023-03-26T05:57:29.368Z,99439.63
2023-03-26T05:59:56.291Z,99437.97
2023-03-26T06:02:23.627Z,99435.38
2023-03-26T06:04:50.779Z,99421.38
2023-03-26T06:07:18.146Z,99420.63
2023-03-26T06:09:44.928Z,99414.59
2023-03-26T06:12:11.450Z,99412.06
2023-03-26T06:14:38.026Z,99416.47
2023-03-26T06:17:04.361Z,99418.19
2023-03-26T06:19:30.901Z,99402.34
2023-03-26T06:21:57.228Z,99406.81
2023-03-26T06:24:23.644Z,99403.44
2023-03-26T06:26:50.090Z,99395.63
2023-03-26T06:29:16.552Z,99396.50
2023-03-26T06:31:42.921Z,99381.56
2023-03-26T06:34:09.350Z,99383.28
2023-03-26T06:36:35.664Z,99388.56
2023-03-26T06:39:01.952Z,99378.06
2023-03-26T06:41:35.040Z,99383.38
2023-03-26T06:44:01.360Z,99386.00
2023-03-26T06:46:27.933Z,99388.63
2023-03-26T06:48:54.295Z,99389.53
2023-03-26T06:51:20.826Z,99388.78
2023-03-26T06:53:47.204Z,99382.66
2023-03-26T06:56:13.590Z,99385.34
2023-03-26T06:58:39.925Z,99370.44
2023-03-26T07:01:06.604Z,99367.84
2023-03-26T07:03:33.179Z,99352.88
2023-03-26T07:05:59.520Z,99353.78
2023-03-26T07:08:26.487Z,99346.78
2023-03-26T07:10:53.196Z,99341.50
2023-03-26T07:13:19.762Z,99339.75
2023-03-26T07:15:51.046Z,99338.94
2023-03-26T07:18:17.381Z,99323.19
2023-03-26T07:20:45.326Z,99315.28
2023-03-26T07:23:13.669Z,99304.75
2023-03-26T07:25:41.097Z,99315.25
2023-03-26T07:28:13.520Z,99315.25
2023-03-26T07:31:04.190Z,99309.09
2023-03-26T07:33:39.841Z,99305.59
2023-03-26T07:36:19.780Z,99293.31
2023-03-26T07:38:56.969Z,99291.63
2023-03-26T07:41:29.110Z,99288.09
2023-03-26T07:44:14.124Z,99279.31
2023-03-26T07:46:41.352Z,99273.09
2023-03-26T07:49:12.625Z,99272.19
2023-03-26T07:51:39.783Z,99267.84
2023-03-26T07:54:06.817Z,99266.09
2023-03-26T07:56:58.000Z,99266.94
2023-03-26T07:59:31.636Z,99273.06
2023-03-26T08:02:19.865Z,99267.78
2023-03-26T08:04:57.785Z,99264.22
2023-03-26T08:07:31.750Z,99265.13
2023-03-26T08:10:12.354Z,99264.25
2023-03-26T08:13:06.966Z,99262.53
2023-03-26T08:16:00.781Z,99260.81
2023-03-26T08:18:35.527Z,99260.03
2023-03-26T08:21:20.468Z,99253.06
2023-03-26T08:23:55.632Z,99255.72
2023-03-26T08:26:41.245Z,99256.63
2023-03-26T08:29:29.499Z,99265.41
2023-03-26T08:31:57.354Z,99266.25
2023-03-26T08:34:23.727Z,99263.63
2023-03-26T08:36:50.350Z,99253.97
2023-03-26T08:39:16.965Z,99247.84
2023-03-26T08:42:18.859Z,99239.97
2023-03-26T08:45:19.521Z,99238.22
2023-03-26T08:48:10.943Z,99239.16
2023-03-26T08:51:16.507Z,99229.50
2023-03-26T08:54:07.833Z,99221.63
2023-03-26T08:56:53.033Z,99219.91
2023-03-26T08:59:50.469Z,99227.88
2023-03-26T09:02:38.571Z,99236.69
2023-03-26T09:05:37.267Z,99238.44
2023-03-26T09:08:34.671Z,99230.50
2023-03-26T09:11:15.554Z,99225.28
2023-03-26T09:13:53.778Z,99214.75
2023-03-26T09:16:53.743Z,99205.09
2023-03-26T09:19:54.025Z,99204.22
2023-03-26T09:22:41.732Z,99198.09
2023-03-26T09:25:29.287Z,99194.56
2023-03-26T09:28:20.608Z,99173.41
2023-03-26T09:31:16.781Z,99171.59
2023-03-26T09:34:06.410Z,99183.81
2023-03-26T09:36:54.533Z,99175.84
2023-03-26T09:39:35.397Z,99179.41
2023-03-26T09:42:08.277Z,99190.91
2023-03-26T09:44:56.760Z,99185.72
2023-03-26T09:47:40.693Z,99178.69
2023-03-26T09:50:25.811Z,99176.03
2023-03-26T09:53:01.178Z,99174.25
2023-03-26T09:55:42.413Z,99178.63
2023-03-26T09:58:33.578Z,99176.00
2023-03-26T10:01:33.523Z,99174.28
2023-03-26T10:04:33.011Z,99183.06
2023-03-26T10:07:04.353Z,99167.13
2023-03-26T10:09:33.574Z,99158.13
2023-03-26T10:12:22.721Z,99142.03
2023-03-26T10:15:11.057Z,99148.63
2023-03-26T10:17:51.039Z,99137.69
2023-03-26T10:20:33.214Z,99136.84
2023-03-26T10:23:07.871Z,99135.91
2023-03-26T10:25:58.918Z,99128.78
2023-03-26T10:28:44.954Z,99136.28
2023-03-26T10:31:42.274Z,99126.59
2023-03-26T10:34:44.617Z,99106.28
2023-03-26T10:37:36.613Z,99110.94
2023-03-26T10:40:33.853Z,99120.00
2023-03-26T10:43:36.148Z,99115.66
2023-03-26T10:46:25.309Z,99104.66
2023-03-26T10:49:03.371Z,99103.56
2023-03-26T10:51:36.246Z,99097.19
2023-03-26T10:54:12.841Z,99112.16
2023-03-26T10:56:45.668Z,99102.34
2023-03-26T10:59:14.449Z,99090.72
2023-03-26T11:01:53.023Z,99081.63
2023-03-26T11:04:49.045Z,99082.06
2023-03-26T11:07:32.829Z,99080.47
2023-03-26T11:10:06.247Z,99081.72
2023-03-26T11:12:59.363Z,99070.59
2023-03-26T11:15:54.505Z,99085.09
2023-03-26T11:18:36.483Z,99085.56
2023-03-26T11:21:22.982Z,99089.75
2023-03-26T11:24:12.906Z,99095.22
2023-03-26T11:26:39.473Z,99079.81
2023-03-26T11:29:31.393Z,99080.75
2023-03-26T11:32:12.209Z,99080.53
2023-03-26T11:34:56.340Z,99082.78
2023-03-26T11:37:38.542Z,99082.50
2023-03-26T11:40:39.410Z,99079.16
2023-03-26T11:43:14.249Z,99072.72
2023-03-26T11:45:46.526Z,99063.53
2023-03-26T11:48:23.070Z,99058.59
2023-03-26T11:50:55.406Z,99062.44
2023-03-26T11:53:27.463Z,99059.69
2023-03-26T11:56:14.978Z,99052.81
2023-03-26T11:58:54.437Z,99053.34
2023-03-26T12:01:32.095Z,99053.53
2023-03-26T12:04:05.547Z,99049.97
2023-03-26T12:06:32.926Z,99041.31
2023-03-26T12:08:59.425Z,99041.50
2023-03-26T12:11:28.262Z,99045.56
2023-03-26T12:14:01.114Z,99043.09
2023-03-26T12:16:29.998Z,99043.69
2023-03-26T12:19:04.027Z,99040.44
2023-03-26T12:21:30.433Z,99027.72
2023-03-26T12:24:05.157Z,99042.47
2023-03-26T12:26:34.296Z,99037.44
2023-03-26T12:29:10.721Z,99042.53
2023-03-26T12:32:02.607Z,99024.13
2023-03-26T12:34:34.915Z,99022.78
2023-03-26T12:37:02.348Z,99022.34
2023-03-26T12:40:08.794Z,99025.59
2023-03-26T12:44:48.415Z,99019.09
2023-03-26T12:45:30.133Z,99023.81
2023-03-26T12:48:03.417Z,99009.19
2023-03-26T12:50:44.055Z,99013.16
2023-03-26T12:53:43.081Z,99002.84
2023-03-26T12:56:36.035Z,98991.50
2023-03-26T12:59:21.663Z,98995.81
2023-03-26T13:02:17.566Z,98984.00
2023-03-26T13:04:58.633Z,98984.63
2023-03-26T13:07:52.391Z,98992.25
2023-03-26T13:10:33.593Z,98987.16
2023-03-26T13:13:10.689Z,98984.09
2023-03-26T13:15:43.524Z,98977.81
2023-03-26T13:18:36.369Z,98988.66
2023-03-26T13:21:10.934Z,98980.09
2023-03-26T13:23:44.361Z,98980.78
2023-03-26T13:26:54.374Z,98990.44
2023-03-26T13:29:36.148Z,99006.69
2023-03-26T13:32:21.775Z,99003.78
2023-03-26T13:35:26.069Z,99001.44
2023-03-26T13:38:20.226Z,99002.78
2023-03-26T13:40:55.728Z,98992.44
2023-03-26T13:43:37.929Z,98981.84
2023-03-26T13:46:16.056Z,98989.84
2023-03-26T13:49:01.238Z,98974.69
2023-03-26T13:51:40.614Z,98969.19
2023-03-26T13:54:28.573Z,98974.28
2023-03-26T13:57:00.770Z,98978.59
2023-03-26T13:59:34.847Z,98982.16
2023-03-26T14:02:08.827Z,98982.72
2023-03-26T14:04:44.356Z,98975.09
2023-03-26T14:07:17.987Z,98965.81
2023-03-26T14:10:16.923Z,98960.50
2023-03-26T14:13:01.942Z,98955.53
2023-03-26T14:15:34.441Z,98960.16
2023-03-26T14:18:31.307Z,98967.56
2023-03-26T14:21:00.651Z,98963.75
2023-03-26T14:24:02.620Z,98969.78
2023-03-26T14:27:06.044Z,98958.13
2023-03-26T14:29:56.771Z,98952.53
2023-03-26T14:32:33.234Z,98953.53
2023-03-26T14:35:33.522Z,98950.94
2023-03-26T14:38:33.422Z,98954.41
2023-03-26T14:41:23.856Z,98957.28
2023-03-26T14:44:25.845Z,98956.41
2023-03-26T14:47:04.459Z,98944.19
2023-03-26T14:50:04.970Z,98949.06
2023-03-26T14:52:50.213Z,98946.97
2023-03-26T14:55:38.636Z,98943.19
2023-03-26T14:58:33.932Z,98938.66
2023-03-26T15:01:27.816Z,98945.59
2023-03-26T15:04:15.939Z,98948.19
2023-03-26T15:06:42.192Z,98957.66
2023-03-26T15:09:46.129Z,98937.97
2023-03-26T15:12:36.858Z,98942.81
2023-03-26T15:15:45.361Z,98944.88
2023-03-26T15:18:23.144Z,98955.94
2023-03-26T15:21:26.823Z,98952.00
2023-03-26T15:23:55.942Z,98969.31
2023-03-26T15:27:13.860Z,99006.06
2023-03-26T15:30:12.105Z,99061.06
2023-03-26T15:32:57.661Z,99072.25
2023-03-26T15:36:00.790Z,99070.44
2023-03-26T15:38:54.425Z,99071.19
2023-03-26T15:41:32.315Z,99078.09
2023-03-26T15:44:23.521Z,99080.72
2023-03-26T15:47:17.268Z,99067.53
2023-03-26T15:50:13.770Z,99049.13
2023-03-26T15:52:55.106Z,99052.69
2023-03-26T15:55:40.051Z,99054.44
2023-03-26T15:58:21.251Z,99057.13
2023-03-26T16:01:07.822Z,99050.13
2023-03-26T16:03:51.042Z,99065.94
2023-03-26T16:06:30.981Z,99063.41
2023-03-26T16:09:12.554Z,99073.16
2023-03-26T16:11:53.601Z,99077.50
2023-03-26T16:14:43.954Z,99077.38
2023-03-26T16:17:23.258Z,99068.38
2023-03-26T16:20:19.618Z,99078.19
2023-03-26T16:22:56.409Z,99079.19
2023-03-26T16:25:54.363Z,99066.91
2023-03-26T16:28:37.179Z,99076.63
2023-03-26T16:31:37.555Z,99060.78
2023-03-26T16:34:07.702Z,99057.28
2023-03-26T16:36:36.387Z,99052.91
2023-03-26T16:39:05.416Z,99050.25
2023-03-26T16:41:51.177Z,99058.19
2023-03-26T16:44:31.409Z,99060.84
2023-03-26T16:47:23.059Z,99053.81
2023-03-26T16:50:18.734Z,99052.03
2023-03-26T16:53:20.995Z,99051.09
2023-03-26T16:55:56.612Z,99061.66
2023-03-26T16:58:30.332Z,99067.81
2023-03-26T17:01:34.558Z,99071.31
2023-03-26T17:04:07.231Z,99066.94
2023-03-26T17:06:53.194Z,99072.22
2023-03-26T17:09:44.804Z,99073.13
2023-03-26T17:12:36.828Z,99079.28
2023-03-26T17:15:41.140Z,99089.78
2023-03-26T17:18:27.567Z,99085.41
2023-03-26T17:21:45.938Z,99089.78
2023-03-26T17:24:45.426Z,99095.94
2023-03-26T17:27:50.098Z,99095.94
2023-03-26T17:30:55.679Z,99098.56
2023-03-26T17:33:34.877Z,99096.81
2023-03-26T17:36:21.338Z,99097.69
2023-03-26T17:38:47.680Z,99101.19
2023-03-26T17:41:35.166Z,99102.97
2023-03-26T17:44:25.651Z,99099.44
2023-03-26T17:46:56.026Z,99102.94
2023-03-26T17:49:26.910Z,99103.81
2023-03-26T17:52:15.300Z,99111.75
2023-03-26T17:54:52.020Z,99110.88
2023-03-26T17:57:27.809Z,99121.41
2023-03-26T18:00:00.444Z,99124.03
2023-03-26T18:02:42.157Z,99116.09
2023-03-26T18:05:12.382Z,99125.78
2023-03-26T18:07:59.987Z,99132.78
2023-03-26T18:10:56.809Z,99132.75
2023-03-26T18:13:50.666Z,99142.44
2023-03-26T18:16:21.162Z,99143.31
2023-03-26T18:19:02.311Z,99145.00
2023-03-26T18:21:37.998Z,99140.59
2023-03-26T18:24:06.716Z,99155.50
2023-03-26T18:26:37.375Z,99151.91
2023-03-26T18:29:21.596Z,99151.84
2023-03-26T18:31:53.219Z,99155.31
2023-03-26T18:34:20.470Z,99152.66
2023-03-26T18:37:01.186Z,99159.66
2023-03-26T18:39:27.825Z,99153.53
2023-03-26T18:41:54.521Z,99167.59
2023-03-26T18:44:21.686Z,99168.44
2023-03-26T18:46:48.289Z,99166.69
2023-03-26T18:49:16.491Z,99169.31
2023-03-26T18:51:56.258Z,99168.44
2023-03-26T18:54:24.588Z,99167.59
2023-03-26T18:56:52.103Z,99164.94
2023-03-26T18:59:35.142Z,99166.69
2023-03-26T19:02:11.391Z,99171.06
2023-03-26T19:04:38.493Z,99167.56
2023-03-26T19:07:11.609Z,99170.22
2023-03-26T19:09:38.712Z,99175.50
2023-03-26T19:12:17.998Z,99172.00
2023-03-26T19:14:57.390Z,99170.25
2023-03-26T19:17:28.034Z,99169.41
2023-03-26T19:19:56.019Z,99174.69
2023-03-26T19:22:25.063Z,99180.84
2023-03-26T19:24:57.006Z,99179.09
2023-03-26T19:27:23.667Z,99177.38
2023-03-26T19:29:50.509Z,99179.94
2023-03-26T19:32:20.114Z,99184.31
2023-03-26T19:34:48.014Z,99189.56
2023-03-26T19:37:26.408Z,99185.16
2023-03-26T19:39:55.375Z,99193.91
2023-03-26T19:42:26.665Z,99188.59
2023-03-26T19:44:54.177Z,99196.41
2023-03-26T19:47:48.439Z,99191.16
2023-03-26T19:50:30.511Z,99196.53
2023-03-26T19:53:17.733Z,99198.25
2023-03-26T19:55:59.250Z,99201.81
2023-03-26T19:58:27.105Z,99200.91
2023-03-26T20:00:55.643Z,99201.81
2023-03-26T20:03:27.271Z,99207.91
2023-03-26T20:05:53.727Z,99204.34
2023-03-26T20:08:20.232Z,99209.59
2023-03-26T20:10:46.622Z,99207.75
2023-03-26T20:13:15.189Z,99199.78
2023-03-26T20:15:44.969Z,99215.53
2023-03-26T20:18:12.240Z,99214.69
2023-03-26T20:20:40.815Z,99220.88
2023-03-26T20:23:17.564Z,99224.41
2023-03-26T20:25:51.467Z,99217.38
2023-03-26T20:28:19.090Z,99232.28
2023-03-26T20:30:47.046Z,99231.41
2023-03-26T20:33:18.964Z,99234.91
2023-03-26T20:35:45.703Z,99241.97
2023-03-26T20:38:12.323Z,99251.63
2023-03-26T20:40:39.185Z,99257.81
2023-03-26T20:43:11.570Z,99262.22
2023-03-26T20:45:37.898Z,99262.22
2023-03-26T20:48:04.427Z,99270.97
2023-03-26T20:50:31.637Z,99281.53
2023-03-26T20:52:59.664Z,99283.25
2023-03-26T20:55:26.400Z,99291.09
2023-03-26T20:57:52.814Z,99293.75
2023-03-26T21:00:22.096Z,99291.03
2023-03-26T21:02:54.287Z,99302.44
2023-03-26T21:05:28.891Z,99297.22
2023-03-26T21:08:00.148Z,99308.63
2023-03-26T21:10:29.591Z,99312.09
2023-03-26T21:13:18.649Z,99319.88
2023-03-26T21:15:45.456Z,99318.97
2023-03-26T21:18:12.288Z,99331.94
2023-03-26T21:20:39.410Z,99341.56
2023-03-26T21:23:16.478Z,99347.69
2023-03-26T21:26:12.063Z,99350.16
2023-03-26T21:28:46.826Z,99353.59
2023-03-26T21:31:22.057Z,99361.44
2023-03-26T21:33:49.358Z,99365.81
2023-03-26T21:36:18.022Z,99370.09
2023-03-26T21:38:45.433Z,99387.66
2023-03-26T21:41:24.142Z,99382.19
2023-03-26T21:43:51.277Z,99379.44
2023-03-26T21:46:17.828Z,99395.19
2023-03-26T21:48:44.449Z,99406.56
2023-03-26T21:51:14.536Z,99405.59
2023-03-26T21:53:42.370Z,99404.78
2023-03-26T21:56:48.462Z,99416.13
2023-03-26T21:59:51.574Z,99429.19
2023-03-26T22:02:42.766Z,99435.13
2023-03-26T22:05:18.364Z,99440.44
2023-03-26T22:07:51.408Z,99452.84
2023-03-26T22:10:18.458Z,99463.66
2023-03-26T22:12:44.860Z,99475.19
2023-03-26T22:15:14.297Z,99466.47
2023-03-26T22:17:41.938Z,99477.00
2023-03-26T22:20:13.691Z,99469.81
2023-03-26T22:22:48.616Z,99481.16
2023-03-26T22:25:16.738Z,99492.56
2023-03-26T22:27:43.988Z,99497.91
2023-03-26T22:30:11.972Z,99487.31
2023-03-26T22:32:38.827Z,99503.03
2023-03-26T22:35:05.958Z,99516.06
2023-03-26T22:37:32.582Z,99522.25
2023-03-26T22:39:59.728Z,99535.28
2023-03-26T22:42:26.112Z,99536.84
2023-03-26T22:44:52.477Z,99550.59
2023-03-26T22:47:18.750Z,99547.78
2023-03-26T22:49:45.350Z,99556.34
2023-03-26T22:52:11.790Z,99557.91
2023-03-26T22:54:39.213Z,99575.28
2023-03-26T22:57:05.539Z,99576.88
2023-03-26T22:59:32.235Z,99586.38
2023-03-26T23:01:58.682Z,99605.38
2023-03-26T23:04:30.964Z,99598.13
2023-03-26T23:06:58.415Z,99631.41
2023-03-26T23:09:24.806Z,99610.44
2023-03-26T23:11:51.734Z,99615.59
2023-03-26T23:14:18.997Z,99636.00
2023-03-26T23:16:48.049Z,99632.50
2023-03-26T23:19:14.675Z,99644.97
2023-03-26T23:21:41.273Z,99655.53
2023-03-26T23:24:08.097Z,99670.50
2023-03-26T23:26:43.897Z,99652.97
2023-03-26T23:29:14.284Z,99662.66
2023-03-26T23:31:41.964Z,99670.59
2023-03-26T23:34:08.839Z,99680.28
2023-03-26T23:36:36.197Z,99694.19
2023-03-26T23:39:02.812Z,99692.50
2023-03-26T23:41:29.153Z,99697.75
2023-03-26T23:43:56.059Z,99709.16
2023-03-26T23:46:24.564Z,99709.06
2023-03-26T23:48:51.578Z,99723.06
2023-03-26T23:51:19.934Z,99731.84
2023-03-26T23:53:47.172Z,99744.88
2023-03-26T23:56:13.600Z,99744.81
2023-03-26T23:58:40.128Z,99743.00
